Terminal Aerodrome Forecast
Issued by NWS

Home | Current Version | Previous Version | Text Only | Print | Product List | Glossary On
Versions: 1 2 3 4 5 6 7 8 9 10 11 12 13 14 15 16 17 18 19 20 21 22 23 24 25 26 27 28 29
000
FTUS44 KFWD 042013 AAA
TAFDAL
TAF AMD
KDAL 042013Z 0420/0518 15014KT P6SM SCT060 BKN150
     FM050100 16014KT P6SM BKN100
     FM051000 15013KT P6SM BKN015
      TEMPO 0512/0514 OVC009
     FM051700 15015KT P6SM VCTS BKN015CB=

USA.gov is the U.S. government's official web portal to all federal, state and local government web resources and services.